< Cyclone 198212 1982 Season Cyclone 198214 >
Cyclone 198213 (IAN)
General InformationTrack Information on Google MapsList of All Images || ResourceGoogle EarthGE AnimationAtom FeedGeoJSON
Detalied Best Track (Time Zone = UTC)
Year Month Day Hour Lat. Long. Pressure (hPa) Wind (kt) Class Image Chart
1982 2 23 03 -13.1 122.7 1006 0 0 Image --
1982 2 23 06 -13.7 122.3 1004 0 0 Image --
1982 2 23 12 -14.2 121.1 1002 0 0 Image --
1982 2 23 18 -15.0 119.9 1001 0 0 Image --
1982 2 24 00 -16.1 119.0 1001 0 0 Image --
1982 2 24 06 -16.6 118.0 1001 0 0 Image --
1982 2 24 12 -16.7 116.9 1001 0 0 Image --
1982 2 24 18 -16.8 116.2 1000 0 0 Image --
1982 2 25 00 -16.9 115.5 1000 0 0 Image --
1982 2 25 06 -16.9 115.0 1000 0 0 Image --
1982 2 25 12 -16.9 114.4 1000 0 0 Image --
1982 2 25 18 -17.0 113.8 1000 0 0 Image --
1982 2 26 00 -17.2 113.2 999 0 0 Image --
1982 2 26 06 -18.1 112.6 999 0 0 Image --
1982 2 26 12 -17.6 111.3 999 0 0 Image --
1982 2 26 18 -17.0 111.1 999 0 0 Image --
1982 2 27 00 -16.7 111.5 999 0 0 Image --
1982 2 27 06 -16.7 112.1 999 0 0 Image --
1982 2 27 12 -16.9 113.0 999 0 0 Image --
1982 2 27 18 -17.1 113.7 999 0 0 Image --
1982 2 28 00 -17.1 114.2 999 0 0 Image --
1982 2 28 06 -17.2 115.2 999 0 0 Image --
1982 2 28 12 -17.2 116.2 999 0 0 Image --
1982 2 28 18 -17.2 116.7 999 0 0 Image --
1982 3 1 00 -17.3 117.2 999 0 0 Image --
1982 3 1 06 -17.5 117.7 999 0 0 Image --
1982 3 1 12 -17.6 118.3 997 0 0 Image --
1982 3 1 18 -17.4 118.7 995 0 0 Image --
1982 3 2 00 -17.0 119.4 993 0 0 Image --
1982 3 2 03 -16.8 119.7 992 0 0 Image --
1982 3 2 06 -16.5 119.9 991 0 0 Image --
1982 3 2 09 -16.4 120.3 990 0 0 Image --
1982 3 2 12 -16.3 120.7 989 0 0 Image --
1982 3 2 15 -16.3 121.1 988 0 0 Image --
1982 3 2 18 -16.3 121.4 987 0 0 Image --
1982 3 2 21 -16.4 121.7 986 0 0 Image --
1982 3 3 00 -16.5 121.9 985 0 0 Image --
1982 3 3 03 -16.6 121.9 984 0 0 Image --
1982 3 3 06 -16.7 122.0 983 0 0 Image --
1982 3 3 09 -16.8 122.0 982 0 0 Image --
1982 3 3 12 -17.1 122.0 981 0 0 Image --
1982 3 3 15 -17.2 121.7 980 0 0 Image --
1982 3 3 18 -17.3 121.4 976 0 0 Image --
1982 3 3 21 -17.5 121.0 972 0 0 Image --
1982 3 4 00 -17.7 120.6 968 0 0 Image --
1982 3 4 03 -17.9 120.1 964 0 0 Image --
1982 3 4 06 -18.2 119.5 964 0 0 Image --
1982 3 4 09 -18.4 119.0 964 0 0 Image --
1982 3 4 12 -18.4 118.5 964 0 0 Image --
1982 3 4 15 -18.5 118.0 964 0 0 Image --
1982 3 4 18 -18.7 117.6 964 0 0 Image --
1982 3 4 21 -18.9 117.1 964 0 0 Image --
1982 3 5 00 -19.2 116.8 964 0 0 Image --
1982 3 5 03 -19.4 116.4 964 0 0 Image --
1982 3 5 06 -19.6 115.8 965 0 0 Image --
1982 3 5 09 -19.8 115.0 966 0 0 Image --
1982 3 5 12 -20.0 114.8 967 0 0 Image --
1982 3 5 15 -20.1 114.6 968 0 0 Image --
1982 3 5 18 -20.3 114.3 970 0 0 Image --
1982 3 5 21 -20.6 114.2 972 0 0 Image --
1982 3 6 00 -20.9 114.1 976 0 0 Image --
1982 3 6 03 -21.4 114.1 980 0 0 Image --
1982 3 6 06 -21.8 114.0 984 0 0 Image --
1982 3 6 09 -22.4 113.8 988 0 0 Image --
1982 3 6 12 -23.1 113.7 992 0 0 Image --
1982 3 6 15 -23.4 113.8 996 0 0 Image --
1982 3 6 18 -23.6 113.9 997 0 0 Image --
1982 3 6 21 -23.7 114.0 998 0 0 Image --
1982 3 7 00 -23.9 114.1 999 0 0 Image --
1982 3 7 03 -24.0 114.2 1000 0 0 Image --
1982 3 7 06 -24.1 114.3 1002 0 0 Image --
1982 3 7 09 -24.2 114.6 1003 0 0 Image --
1982 3 7 12 -24.2 114.8 1004 0 0 Image --
1982 3 7 15 -24.3 115.0 1005 0 0 Image --
1982 3 7 18 -24.4 115.5 1006 0 0 Image --
< Cyclone 198212 1982 Season Cyclone 198214 >

Help